createdAt,value
2022-09-10T00:01:21.240Z,90.67
2022-09-10T00:03:51.246Z,90.21
2022-09-10T00:06:18.934Z,90.19
2022-09-10T00:08:46.584Z,90.17
2022-09-10T00:11:14.940Z,89.85
2022-09-10T00:13:42.239Z,89.85
2022-09-10T00:16:12.039Z,89.85
2022-09-10T00:18:39.884Z,89.88
2022-09-10T00:21:10.342Z,89.77
2022-09-10T00:23:37.462Z,89.86
2022-09-10T00:26:23.210Z,89.88
2022-09-10T00:28:51.064Z,89.65
2022-09-10T00:31:18.928Z,89.48
2022-09-10T00:33:45.451Z,89.42
2022-09-10T00:36:26.655Z,89.44
2022-09-10T00:38:54.834Z,89.43
2022-09-10T00:41:23.340Z,89.46
2022-09-10T00:43:57.256Z,89.49
2022-09-10T00:46:38.875Z,89.28
2022-09-10T00:49:14.476Z,89.25
2022-09-10T00:51:41.608Z,89.45
2022-09-10T00:54:08.265Z,89.71
2022-09-10T00:56:34.914Z,89.60
2022-09-10T00:59:04.137Z,89.77
2022-09-10T01:01:33.422Z,89.99
2022-09-10T01:04:01.321Z,90.15
2022-09-10T01:06:27.991Z,90.12
2022-09-10T01:08:54.352Z,90.31
2022-09-10T01:11:47.672Z,90.43
2022-09-10T01:14:27.824Z,90.65
2022-09-10T01:17:38.667Z,90.63
2022-09-10T01:20:56.538Z,90.84
2022-09-10T01:23:45.002Z,90.83
2022-09-10T01:26:30.036Z,90.98
2022-09-10T01:29:05.424Z,91.02
2022-09-10T01:31:54.030Z,91.13
2022-09-10T01:34:27.617Z,90.92
2022-09-10T01:37:00.088Z,91.14
2022-09-10T01:39:27.323Z,91.31
2022-09-10T01:41:54.439Z,91.22
2022-09-10T01:44:47.425Z,91.24
2022-09-10T01:47:51.316Z,91.09
2022-09-10T01:50:34.244Z,91.19
2022-09-10T01:53:23.221Z,91.23
2022-09-10T01:55:55.201Z,91.13
2022-09-10T01:58:36.579Z,91.44
2022-09-10T02:01:14.841Z,91.42
2022-09-10T02:03:44.532Z,91.33
2022-09-10T02:06:14.958Z,91.50
2022-09-10T02:08:45.385Z,91.43
2022-09-10T02:11:14.196Z,91.49
2022-09-10T02:13:44.173Z,91.56
2022-09-10T02:16:18.367Z,91.52
2022-09-10T02:18:44.860Z,91.61
2022-09-10T02:21:11.973Z,91.67
2022-09-10T02:23:44.232Z,91.61
2022-09-10T02:26:12.066Z,91.59
2022-09-10T02:28:39.652Z,91.46
2022-09-10T02:31:06.273Z,91.49
2022-09-10T02:33:32.673Z,91.53
2022-09-10T02:35:59.135Z,91.38
2022-09-10T02:38:25.444Z,91.52
2022-09-10T02:40:51.767Z,91.58
2022-09-10T02:43:18.091Z,91.60
2022-09-10T02:45:44.702Z,91.46
2022-09-10T02:48:11.132Z,91.50
2022-09-10T02:50:37.680Z,91.44
2022-09-10T02:53:04.062Z,91.33
2022-09-10T02:55:31.427Z,91.60
2022-09-10T02:57:58.339Z,91.56
2022-09-10T03:00:24.906Z,91.73
2022-09-10T03:02:51.276Z,91.56
2022-09-10T03:05:17.705Z,91.67
2022-09-10T03:07:44.785Z,91.60
2022-09-10T03:10:11.117Z,91.62
2022-09-10T03:12:39.139Z,91.57
2022-09-10T03:15:06.096Z,91.70
2022-09-10T03:17:32.802Z,91.76
2022-09-10T03:19:59.164Z,91.35
2022-09-10T03:22:25.559Z,91.70
2022-09-10T03:24:51.928Z,91.74
2022-09-10T03:27:18.305Z,91.65
2022-09-10T03:29:45.254Z,91.51
2022-09-10T03:32:11.581Z,91.69
2022-09-10T03:34:39.120Z,91.80
2022-09-10T03:37:05.834Z,91.67
2022-09-10T03:39:32.259Z,91.60
2022-09-10T03:41:58.645Z,91.75
2022-09-10T03:44:25.281Z,91.88
2022-09-10T03:46:51.943Z,91.90
2022-09-10T03:49:18.362Z,91.55
2022-09-10T03:51:44.694Z,91.71
2022-09-10T03:54:11.503Z,91.74
2022-09-10T03:56:37.978Z,91.90
2022-09-10T03:59:04.396Z,91.91
2022-09-10T04:01:30.861Z,91.82
2022-09-10T04:03:57.407Z,91.75
2022-09-10T04:06:24.040Z,91.98
2022-09-10T04:08:52.671Z,92.25
2022-09-10T04:11:20.472Z,92.00
2022-09-10T04:13:48.441Z,92.02
2022-09-10T04:16:16.335Z,91.83
2022-09-10T04:18:42.825Z,91.99
2022-09-10T04:21:09.245Z,91.80
2022-09-10T04:23:35.644Z,91.95
2022-09-10T04:26:11.348Z,92.08
2022-09-10T04:28:38.288Z,92.14
2022-09-10T04:31:04.662Z,92.30
2022-09-10T04:33:33.079Z,92.59
2022-09-10T04:36:02.299Z,92.67
2022-09-10T04:38:30.402Z,93.08
2022-09-10T04:40:57.895Z,93.10
2022-09-10T04:43:28.273Z,93.32
2022-09-10T04:45:55.745Z,93.32
2022-09-10T04:48:22.893Z,93.29
2022-09-10T04:51:14.865Z,93.40
2022-09-10T04:53:40.419Z,93.30
2022-09-10T04:56:07.994Z,93.46
2022-09-10T04:58:38.693Z,93.32
2022-09-10T05:01:05.843Z,93.16
2022-09-10T05:03:32.339Z,93.23
2022-09-10T05:05:58.705Z,93.18
2022-09-10T05:08:25.076Z,93.19
2022-09-10T05:10:51.479Z,93.04
2022-09-10T05:13:18.180Z,93.07
2022-09-10T05:15:45.998Z,93.12
2022-09-10T05:18:12.340Z,93.09
2022-09-10T05:20:38.701Z,93.10
2022-09-10T05:23:05.113Z,93.15
2022-09-10T05:25:31.575Z,93.14
2022-09-10T05:27:57.952Z,93.15
2022-09-10T05:30:24.643Z,93.04
2022-09-10T05:32:53.173Z,93.00
2022-09-10T05:35:19.847Z,92.98
2022-09-10T05:37:46.223Z,93.02
2022-09-10T05:40:14.484Z,93.06
2022-09-10T05:42:40.848Z,92.98
2022-09-10T05:45:07.794Z,92.87
2022-09-10T05:47:34.428Z,93.11
2022-09-10T05:50:00.785Z,93.10
2022-09-10T05:52:27.116Z,93.08
2022-09-10T05:54:56.424Z,93.16
2022-09-10T05:57:22.765Z,92.95
2022-09-10T05:59:49.081Z,92.99
2022-09-10T06:02:23.755Z,92.75
2022-09-10T06:04:50.528Z,92.40
2022-09-10T06:07:16.908Z,92.65
2022-09-10T06:09:43.599Z,92.68
2022-09-10T06:12:09.983Z,92.77
2022-09-10T06:14:36.302Z,92.42
2022-09-10T06:17:02.749Z,92.41
2022-09-10T06:19:29.598Z,92.43
2022-09-10T06:21:56.089Z,92.17
2022-09-10T06:24:24.360Z,92.09
2022-09-10T06:26:50.807Z,92.22
2022-09-10T06:29:19.152Z,92.13
2022-09-10T06:31:47.000Z,92.13
2022-09-10T06:34:13.397Z,92.06
2022-09-10T06:36:39.804Z,91.99
2022-09-10T06:39:07.149Z,92.09
2022-09-10T06:41:35.065Z,91.85
2022-09-10T06:44:01.577Z,91.98
2022-09-10T06:49:15.241Z,91.95
2022-09-10T06:51:42.307Z,91.80
2022-09-10T06:54:08.683Z,91.80
2022-09-10T06:56:35.028Z,91.61
2022-09-10T06:59:02.699Z,91.94
2022-09-10T07:01:29.374Z,91.60
2022-09-10T07:03:57.591Z,91.46
2022-09-10T07:06:25.767Z,91.28
2022-09-10T07:08:56.950Z,91.36
2022-09-10T07:11:24.806Z,91.15
2022-09-10T07:13:53.150Z,90.80
2022-09-10T07:16:20.957Z,90.42
2022-09-10T07:18:51.899Z,90.55
2022-09-10T07:21:19.188Z,90.10
2022-09-10T07:23:48.387Z,90.02
2022-09-10T07:26:17.277Z,89.79
2022-09-10T07:28:43.981Z,89.59
2022-09-10T07:31:19.582Z,89.53
2022-09-10T07:33:47.203Z,89.61
2022-09-10T07:36:14.305Z,89.64
2022-09-10T07:38:41.760Z,89.50
2022-09-10T07:41:11.195Z,89.67
2022-09-10T07:43:41.863Z,89.79
2022-09-10T07:46:12.734Z,89.57
2022-09-10T07:48:41.392Z,89.12
2022-09-10T07:51:09.045Z,88.74
2022-09-10T07:53:35.842Z,88.39
2022-09-10T07:56:07.465Z,88.46
2022-09-10T07:58:35.740Z,88.68
2022-09-10T08:01:02.364Z,88.82
2022-09-10T08:03:29.736Z,89.04
2022-09-10T08:06:00.987Z,88.55
2022-09-10T08:08:31.827Z,88.29
2022-09-10T08:11:12.206Z,87.67
2022-09-10T08:13:41.257Z,87.37
2022-09-10T08:16:09.885Z,87.10
2022-09-10T08:18:37.154Z,86.42
2022-09-10T08:21:05.037Z,86.61
2022-09-10T08:23:31.736Z,86.99
2022-09-10T08:25:58.262Z,86.67
2022-09-10T08:28:27.220Z,86.83
2022-09-10T08:31:00.454Z,87.04
2022-09-10T08:33:27.315Z,87.26
2022-09-10T08:36:00.645Z,87.64
2022-09-10T08:38:30.883Z,87.05
2022-09-10T08:40:59.980Z,87.14
2022-09-10T08:43:42.739Z,86.95
2022-09-10T08:46:22.339Z,86.97
2022-09-10T08:48:58.726Z,86.77
2022-09-10T08:51:30.164Z,86.84
2022-09-10T08:54:03.069Z,87.02
2022-09-10T08:56:31.173Z,87.08
2022-09-10T08:59:04.332Z,86.46
2022-09-10T09:01:40.461Z,86.48
2022-09-10T09:04:18.856Z,86.33
2022-09-10T09:06:51.352Z,86.30
2022-09-10T09:09:17.987Z,86.46
2022-09-10T09:12:10.153Z,86.15
2022-09-10T09:15:04.731Z,86.07
2022-09-10T09:17:52.976Z,85.88
2022-09-10T09:20:50.208Z,85.78
2022-09-10T09:23:27.744Z,85.42
2022-09-10T09:26:11.664Z,84.36
2022-09-10T09:29:02.621Z,84.10
2022-09-10T09:31:32.553Z,83.77
2022-09-10T09:34:09.857Z,83.93
2022-09-10T09:36:47.993Z,83.64
2022-09-10T09:39:25.766Z,82.92
2022-09-10T09:42:12.985Z,82.74
2022-09-10T09:45:06.898Z,82.25
2022-09-10T09:47:33.739Z,80.89
2022-09-10T09:50:00.370Z,79.79
2022-09-10T09:52:31.146Z,79.36
2022-09-10T09:55:14.905Z,77.86
2022-09-10T09:57:42.633Z,78.45
2022-09-10T10:00:35.980Z,77.16
2022-09-10T10:03:26.464Z,74.72
2022-09-10T10:06:03.281Z,76.17
2022-09-10T10:08:37.646Z,74.79
2022-09-10T10:11:04.771Z,74.81
2022-09-10T10:13:42.523Z,74.84
2022-09-10T10:16:45.069Z,74.69
2022-09-10T10:19:37.759Z,76.21
2022-09-10T10:22:19.257Z,75.08
2022-09-10T10:24:47.940Z,73.79
2022-09-10T10:27:16.762Z,70.83
2022-09-10T10:29:55.654Z,70.16
2022-09-10T10:32:32.161Z,70.42
2022-09-10T10:35:27.419Z,71.12
2022-09-10T10:38:00.913Z,69.89
2022-09-10T10:40:34.169Z,70.99
2022-09-10T10:43:39.183Z,71.52
2022-09-10T10:46:17.137Z,71.13
2022-09-10T10:49:05.234Z,71.49
2022-09-10T10:51:34.548Z,72.43
2022-09-10T10:54:28.378Z,70.91
2022-09-10T10:57:11.765Z,70.56
2022-09-10T11:00:00.996Z,71.11
2022-09-10T11:03:09.959Z,71.37
2022-09-10T11:05:48.034Z,71.29
2022-09-10T11:08:21.412Z,70.55
2022-09-10T11:10:56.183Z,68.80
2022-09-10T11:13:35.896Z,67.91
2022-09-10T11:16:25.993Z,66.07
2022-09-10T11:19:08.927Z,65.46
2022-09-10T11:21:40.187Z,66.51
2022-09-10T11:24:18.682Z,65.77
2022-09-10T11:26:51.114Z,66.67
2022-09-10T11:29:35.881Z,66.76
2022-09-10T11:32:48.534Z,67.70
2022-09-10T11:35:34.684Z,67.56
2022-09-10T11:38:04.041Z,67.26
2022-09-10T11:40:46.245Z,67.05
2022-09-10T11:43:19.606Z,67.48
2022-09-10T11:45:57.485Z,66.90
2022-09-10T11:48:37.094Z,67.11
2022-09-10T11:51:12.415Z,68.18
2022-09-10T11:53:38.831Z,66.21
2022-09-10T11:56:05.398Z,66.92
2022-09-10T11:58:37.998Z,65.99
2022-09-10T12:01:19.761Z,64.05
2022-09-10T12:03:46.140Z,63.34
2022-09-10T12:06:22.115Z,64.32
2022-09-10T12:09:03.701Z,63.86
2022-09-10T12:12:03.272Z,64.18
2022-09-10T12:14:30.325Z,63.80
2022-09-10T12:17:02.465Z,62.70
2022-09-10T12:19:37.316Z,63.00
2022-09-10T12:22:18.812Z,63.72
2022-09-10T12:24:54.541Z,63.19
2022-09-10T12:27:21.515Z,62.58
2022-09-10T12:29:49.078Z,61.71
2022-09-10T12:32:21.350Z,59.88
2022-09-10T12:35:08.282Z,56.85
2022-09-10T12:37:34.629Z,56.03
2022-09-10T12:40:39.675Z,56.94
2022-09-10T12:43:41.442Z,59.40
2022-09-10T12:46:11.929Z,58.91
2022-09-10T12:48:44.899Z,58.28
2022-09-10T12:51:20.482Z,57.91
2022-09-10T12:54:24.217Z,59.16
2022-09-10T12:57:16.262Z,59.25
2022-09-10T12:59:54.569Z,61.18
2022-09-10T13:02:33.889Z,62.28
2022-09-10T13:05:17.182Z,62.16
2022-09-10T13:07:45.144Z,63.01
2022-09-10T13:10:22.047Z,61.50
2022-09-10T13:12:55.426Z,61.85
2022-09-10T13:15:29.870Z,61.69
2022-09-10T13:17:56.395Z,60.66
2022-09-10T13:20:22.678Z,59.70
2022-09-10T13:23:01.438Z,59.69
2022-09-10T13:25:34.830Z,61.85
2022-09-10T13:28:01.830Z,62.56
2022-09-10T13:30:29.701Z,61.66
2022-09-10T13:33:00.945Z,60.22
2022-09-10T13:35:42.185Z,59.19
2022-09-10T13:38:24.136Z,58.56
2022-09-10T13:41:23.856Z,57.67
2022-09-10T13:44:01.183Z,58.22
2022-09-10T13:46:37.775Z,58.69
2022-09-10T13:49:19.368Z,62.44
2022-09-10T13:51:53.067Z,65.32
2022-09-10T13:54:32.933Z,66.30
2022-09-10T13:57:20.956Z,67.10
2022-09-10T13:59:50.490Z,66.25
2022-09-10T14:02:19.703Z,66.43
2022-09-10T14:04:46.912Z,68.59
2022-09-10T14:07:28.428Z,66.97
2022-09-10T14:10:00.658Z,65.40
2022-09-10T14:12:29.243Z,61.82
2022-09-10T14:15:00.279Z,61.89
2022-09-10T14:17:34.260Z,63.15
2022-09-10T14:20:02.883Z,63.17
2022-09-10T14:22:31.732Z,64.42
2022-09-10T14:25:00.666Z,64.75
2022-09-10T14:27:34.905Z,65.62
2022-09-10T14:30:23.028Z,65.89
2022-09-10T14:32:49.847Z,66.35
2022-09-10T14:35:39.976Z,65.65
2022-09-10T14:38:34.090Z,64.90
2022-09-10T14:41:08.816Z,65.08
2022-09-10T14:43:38.337Z,65.23
2022-09-10T14:46:09.930Z,64.43
2022-09-10T14:49:04.504Z,64.36
2022-09-10T14:51:30.841Z,64.22
2022-09-10T14:53:58.588Z,64.52
2022-09-10T14:56:36.360Z,64.48
2022-09-10T14:59:15.286Z,63.90
2022-09-10T15:01:43.916Z,63.76
2022-09-10T15:04:15.775Z,63.77
2022-09-10T15:06:43.931Z,62.74
2022-09-10T15:09:12.557Z,61.88
2022-09-10T15:11:53.443Z,60.83
2022-09-10T15:14:21.124Z,61.51
2022-09-10T15:16:50.573Z,61.60
2022-09-10T15:19:17.336Z,61.51
2022-09-10T15:21:43.720Z,61.81
2022-09-10T15:24:14.188Z,60.71
2022-09-10T15:26:41.147Z,60.43
2022-09-10T15:29:07.716Z,61.34
2022-09-10T15:31:35.705Z,60.36
2022-09-10T15:34:03.081Z,59.65
2022-09-10T15:36:29.662Z,59.31
2022-09-10T15:38:56.053Z,57.89
2022-09-10T15:41:22.392Z,58.19
2022-09-10T15:43:48.721Z,58.02
2022-09-10T15:46:16.958Z,59.39
2022-09-10T15:48:45.003Z,58.95
2022-09-10T15:51:17.089Z,59.29
2022-09-10T15:53:43.888Z,59.70
2022-09-10T15:56:11.722Z,59.93
2022-09-10T15:58:38.990Z,60.58
2022-09-10T16:01:08.839Z,59.99
2022-09-10T16:03:35.177Z,59.53
2022-09-10T16:06:03.240Z,59.87
2022-09-10T16:08:30.302Z,60.43
2022-09-10T16:10:56.972Z,60.26
2022-09-10T16:13:25.852Z,61.33
2022-09-10T16:16:03.829Z,61.25
2022-09-10T16:18:32.295Z,61.32
2022-09-10T16:21:06.608Z,61.63
2022-09-10T16:23:34.475Z,61.41
2022-09-10T16:26:00.903Z,61.91
2022-09-10T16:28:27.401Z,62.40
2022-09-10T16:30:53.798Z,62.61
2022-09-10T16:33:20.242Z,63.18
2022-09-10T16:35:47.658Z,63.03
2022-09-10T16:38:14.216Z,63.56
2022-09-10T16:40:40.541Z,63.92
2022-09-10T16:43:06.928Z,63.95
2022-09-10T16:45:33.328Z,63.90
2022-09-10T16:48:03.961Z,63.46
2022-09-10T16:50:30.933Z,63.51
2022-09-10T16:52:57.253Z,63.85
2022-09-10T16:55:23.815Z,64.37
2022-09-10T16:57:50.166Z,64.97
2022-09-10T17:00:16.702Z,65.14
2022-09-10T17:02:43.229Z,65.33
2022-09-10T17:05:10.488Z,65.97
2022-09-10T17:07:37.250Z,65.95
2022-09-10T17:10:03.772Z,66.02
2022-09-10T17:12:30.190Z,66.55
2022-09-10T17:14:56.541Z,67.01
2022-09-10T17:17:24.210Z,67.04
2022-09-10T17:19:50.557Z,66.91
2022-09-10T17:22:16.972Z,67.35
2022-09-10T17:24:43.296Z,67.13
2022-09-10T17:27:11.346Z,67.86
2022-09-10T17:29:38.487Z,68.27
2022-09-10T17:32:05.605Z,68.38
2022-09-10T17:34:33.723Z,68.36
2022-09-10T17:37:00.078Z,68.76
2022-09-10T17:39:28.573Z,69.17
2022-09-10T17:41:56.364Z,69.52
2022-09-10T17:44:24.388Z,69.71
2022-09-10T17:46:50.862Z,69.96
2022-09-10T17:49:17.188Z,70.19
2022-09-10T17:51:43.779Z,70.67
2022-09-10T17:54:10.412Z,70.92
2022-09-10T17:56:38.043Z,71.01
2022-09-10T17:59:05.405Z,71.35
2022-09-10T18:01:36.138Z,71.17
2022-09-10T18:04:04.048Z,71.40
2022-09-10T18:06:31.963Z,71.38
2022-09-10T18:09:00.199Z,71.58
2022-09-10T18:11:29.417Z,71.37
2022-09-10T18:13:57.112Z,71.68
2022-09-10T18:16:26.640Z,71.85
2022-09-10T18:18:55.657Z,72.20
2022-09-10T18:21:28.228Z,72.24
2022-09-10T18:23:56.235Z,72.39
2022-09-10T18:26:25.159Z,72.92
2022-09-10T18:28:53.859Z,73.15
2022-09-10T18:31:20.329Z,73.19
2022-09-10T18:33:46.848Z,73.50
2022-09-10T18:36:16.307Z,73.65
2022-09-10T18:38:43.296Z,73.84
2022-09-10T18:41:23.456Z,74.04
2022-09-10T18:43:51.055Z,74.13
2022-09-10T18:46:18.956Z,74.42
2022-09-10T18:48:47.192Z,74.46
2022-09-10T18:51:16.056Z,74.94
2022-09-10T18:53:45.215Z,75.00
2022-09-10T18:56:18.000Z,75.34
2022-09-10T18:58:55.813Z,75.77
2022-09-10T19:01:23.849Z,75.71
2022-09-10T19:03:51.007Z,75.93
2022-09-10T19:06:20.669Z,75.96
2022-09-10T19:08:53.210Z,76.22
2022-09-10T19:11:21.652Z,76.45
2022-09-10T19:13:57.304Z,76.71
2022-09-10T19:16:27.514Z,76.82
2022-09-10T19:18:57.028Z,76.83
2022-09-10T19:21:26.238Z,76.97
2022-09-10T19:23:59.379Z,77.35
2022-09-10T19:26:31.647Z,77.39
2022-09-10T19:28:59.466Z,77.64
2022-09-10T19:31:27.580Z,77.87
2022-09-10T19:33:58.953Z,77.95
2022-09-10T19:36:30.742Z,77.92
2022-09-10T19:38:59.480Z,78.03
2022-09-10T19:41:26.091Z,78.19
2022-09-10T19:43:53.763Z,78.54
2022-09-10T19:46:22.385Z,78.61
2022-09-10T19:48:48.824Z,78.89
2022-09-10T19:51:18.991Z,79.23
2022-09-10T19:53:46.456Z,79.14
2022-09-10T19:56:19.734Z,78.88
2022-09-10T19:58:49.591Z,78.77
2022-09-10T20:01:21.279Z,78.89
2022-09-10T20:03:48.279Z,78.97
2022-09-10T20:06:18.257Z,78.96
2022-09-10T20:08:46.250Z,78.96
2022-09-10T20:11:23.894Z,79.13
2022-09-10T20:13:55.539Z,78.94
2022-09-10T20:16:23.724Z,78.95
2022-09-10T20:18:50.265Z,79.09
2022-09-10T20:21:20.157Z,79.24
2022-09-10T20:23:49.289Z,79.51
2022-09-10T20:26:21.304Z,79.67
2022-09-10T20:28:59.146Z,79.45
2022-09-10T20:31:27.844Z,79.44
2022-09-10T20:33:59.613Z,79.40
2022-09-10T20:36:27.520Z,79.71
2022-09-10T20:38:55.546Z,79.64
2022-09-10T20:41:23.363Z,79.74
2022-09-10T20:43:53.604Z,79.77
2022-09-10T20:46:22.489Z,80.08
2022-09-10T20:48:50.667Z,79.90
2022-09-10T20:51:18.735Z,79.90
2022-09-10T20:53:45.337Z,80.16
2022-09-10T20:56:14.175Z,79.96
2022-09-10T20:58:41.555Z,80.08
2022-09-10T21:01:17.255Z,79.58
2022-09-10T21:03:43.696Z,80.04
2022-09-10T21:06:11.671Z,80.07
2022-09-10T21:08:39.840Z,80.65
2022-09-10T21:11:09.843Z,80.43
2022-09-10T21:13:37.516Z,80.41
2022-09-10T21:16:13.592Z,80.13
2022-09-10T21:18:41.720Z,80.19
2022-09-10T21:21:12.780Z,80.30
2022-09-10T21:23:43.975Z,80.31
2022-09-10T21:26:14.861Z,80.42
2022-09-10T21:28:41.909Z,80.22
2022-09-10T21:31:09.720Z,80.38
2022-09-10T21:33:36.521Z,80.25
2022-09-10T21:36:09.732Z,79.91
2022-09-10T21:38:36.107Z,79.81
2022-09-10T21:41:03.674Z,80.73
2022-09-10T21:43:34.882Z,80.61
2022-09-10T21:46:02.419Z,80.50
2022-09-10T21:48:32.698Z,80.36
2022-09-10T21:51:00.422Z,80.74
2022-09-10T21:53:27.691Z,81.36
2022-09-10T21:55:55.805Z,81.65
2022-09-10T21:58:23.095Z,81.45
2022-09-10T22:00:49.734Z,81.78
2022-09-10T22:03:16.964Z,82.27
2022-09-10T22:05:43.350Z,82.25
2022-09-10T22:08:09.760Z,82.35
2022-09-10T22:10:39.904Z,82.16
2022-09-10T22:13:06.290Z,82.10
2022-09-10T22:15:41.445Z,82.43
2022-09-10T22:18:09.143Z,82.61
2022-09-10T22:20:36.395Z,82.62
2022-09-10T22:23:04.060Z,82.55
2022-09-10T22:25:31.105Z,82.29
2022-09-10T22:28:00.546Z,82.40
2022-09-10T22:30:30.288Z,82.20
2022-09-10T22:32:57.904Z,82.04
2022-09-10T22:35:27.001Z,82.44
2022-09-10T22:37:55.991Z,82.78
2022-09-10T22:40:24.377Z,82.33
2022-09-10T22:42:51.596Z,82.30
2022-09-10T22:45:20.908Z,82.31
2022-09-10T22:47:50.069Z,82.46
2022-09-10T22:50:17.141Z,82.87
2022-09-10T22:52:46.744Z,82.75
2022-09-10T22:55:13.431Z,83.06
2022-09-10T22:57:41.648Z,83.18
2022-09-10T23:00:12.820Z,83.15
2022-09-10T23:02:39.285Z,83.47
2022-09-10T23:05:06.529Z,83.75
2022-09-10T23:07:33.857Z,83.59
2022-09-10T23:10:01.187Z,83.50
2022-09-10T23:12:27.511Z,83.24
2022-09-10T23:14:53.900Z,83.64
2022-09-10T23:17:22.563Z,83.37
2022-09-10T23:19:49.114Z,83.34
2022-09-10T23:22:15.456Z,83.22
2022-09-10T23:24:41.789Z,83.14
2022-09-10T23:27:08.640Z,83.21
2022-09-10T23:29:36.395Z,83.02
2022-09-10T23:32:02.724Z,82.91
2022-09-10T23:34:29.062Z,83.11
2022-09-10T23:36:55.490Z,82.96
2022-09-10T23:39:23.983Z,82.86
2022-09-10T23:41:53.453Z,82.94
2022-09-10T23:44:20.332Z,83.10
2022-09-10T23:46:46.887Z,83.75
2022-09-10T23:49:13.529Z,83.90
2022-09-10T23:51:40.220Z,83.96
2022-09-10T23:54:06.643Z,83.97
2022-09-10T23:56:33.459Z,83.54
2022-09-10T23:58:59.998Z,83.22
